createdAt,value
2023-04-01T00:00:56.517Z,0
2023-04-01T00:01:57.970Z,0
2023-04-01T00:02:59.562Z,0
2023-04-01T00:04:01.138Z,0
2023-04-01T00:05:01.766Z,0
2023-04-01T00:06:02.370Z,0
2023-04-01T00:07:02.967Z,0
2023-04-01T00:08:03.572Z,0
2023-04-01T00:09:05.013Z,0
2023-04-01T00:10:06.300Z,0
2023-04-01T00:11:07.795Z,0
2023-04-01T00:12:08.397Z,0
2023-04-01T00:13:08.999Z,0
2023-04-01T00:14:10.451Z,0
2023-04-01T00:15:11.057Z,0
2023-04-01T00:16:21.146Z,0
2023-04-01T00:17:14.093Z,0
2023-04-01T00:18:14.772Z,0
2023-04-01T00:19:16.258Z,0
2023-04-01T00:20:17.663Z,0
2023-04-01T00:21:18.265Z,0
2023-04-01T00:22:19.713Z,0
2023-04-01T00:23:21.174Z,0
2023-04-01T00:24:21.755Z,0
2023-04-01T00:25:22.349Z,0
2023-04-01T00:26:23.796Z,0
2023-04-01T00:27:25.244Z,0
2023-04-01T00:28:26.686Z,0
2023-04-01T00:29:27.293Z,0
2023-04-01T00:30:27.905Z,0
2023-04-01T00:31:29.307Z,0
2023-04-01T00:32:30.838Z,0
2023-04-01T00:33:31.468Z,0
2023-04-01T00:34:32.917Z,0
2023-04-01T00:35:34.530Z,0
2023-04-01T00:36:35.262Z,0
2023-04-01T00:37:36.650Z,0
2023-04-01T00:38:38.092Z,0
2023-04-01T00:39:38.740Z,0
2023-04-01T00:40:40.253Z,0
2023-04-01T00:41:41.645Z,0
2023-04-01T00:42:42.292Z,0
2023-04-01T00:43:43.771Z,0
2023-04-01T00:44:45.282Z,0
2023-04-01T00:45:45.921Z,0
2023-04-01T00:46:47.393Z,0
2023-04-01T00:47:48.043Z,0
2023-04-01T00:48:49.476Z,0
2023-04-01T00:49:50.076Z,0
2023-04-01T00:50:51.528Z,0
2023-04-01T00:51:52.199Z,0
2023-04-01T00:52:52.786Z,0
2023-04-01T00:53:54.259Z,0
2023-04-01T00:54:54.842Z,0
2023-04-01T00:55:55.510Z,0
2023-04-01T00:56:56.978Z,0
2023-04-01T00:57:58.367Z,0
2023-04-01T00:58:58.964Z,0
2023-04-01T01:00:00.404Z,0
2023-04-01T01:01:01.037Z,0
2023-04-01T01:02:02.472Z,0
2023-04-01T01:03:03.912Z,0
2023-04-01T01:04:04.549Z,0
2023-04-01T01:05:05.942Z,0
2023-04-01T01:06:06.538Z,0
2023-04-01T01:07:07.139Z,0
2023-04-01T01:08:08.655Z,0
2023-04-01T01:09:09.254Z,0
2023-04-01T01:10:10.651Z,0
2023-04-01T01:11:11.241Z,0
2023-04-01T01:12:12.637Z,0
2023-04-01T01:13:13.239Z,0
2023-04-01T01:14:14.632Z,0
2023-04-01T01:15:15.228Z,0
2023-04-01T01:16:16.708Z,0
2023-04-01T01:17:18.228Z,0
2023-04-01T01:18:19.733Z,0
2023-04-01T01:19:21.126Z,0
2023-04-01T01:20:26.641Z,0
2023-04-01T01:21:23.331Z,0
2023-04-01T01:22:24.764Z,0
2023-04-01T01:23:25.383Z,0
2023-04-01T01:24:25.964Z,0
2023-04-01T01:25:26.564Z,0
2023-04-01T01:26:27.165Z,0
2023-04-01T01:27:27.756Z,0
2023-04-01T01:28:28.351Z,0
2023-04-01T01:29:28.954Z,0
2023-04-01T01:30:29.572Z,0
2023-04-01T01:31:30.173Z,0
2023-04-01T01:32:31.617Z,0
2023-04-01T01:33:33.106Z,0
2023-04-01T01:34:33.703Z,0
2023-04-01T01:35:35.220Z,0
2023-04-01T01:36:36.680Z,0
2023-04-01T01:37:38.133Z,0
2023-04-01T01:38:39.543Z,0
2023-04-01T01:39:40.940Z,0
2023-04-01T01:40:42.415Z,0
2023-04-01T01:41:43.104Z,0
2023-04-01T01:42:44.552Z,0
2023-04-01T01:43:45.153Z,0
2023-04-01T01:44:45.946Z,0
2023-04-01T01:45:47.397Z,0
2023-04-01T01:46:47.984Z,0
2023-04-01T01:47:49.495Z,0
2023-04-01T01:48:50.908Z,0
2023-04-01T01:49:52.399Z,0
2023-04-01T01:50:53.847Z,0
2023-04-01T01:51:55.299Z,0
2023-04-01T01:52:56.696Z,0
2023-04-01T01:53:58.092Z,0
2023-04-01T01:54:58.696Z,0
2023-04-01T01:55:59.348Z,0
2023-04-01T01:56:59.980Z,0
2023-04-01T01:58:01.459Z,0
2023-04-01T01:59:03.027Z,0
2023-04-01T02:00:04.482Z,0
2023-04-01T02:01:05.964Z,0
2023-04-01T02:02:06.561Z,0
2023-04-01T02:03:07.270Z,0
2023-04-01T02:04:08.738Z,0
2023-04-01T02:05:09.326Z,0
2023-04-01T02:06:10.834Z,0
2023-04-01T02:07:12.233Z,0
2023-04-01T02:08:13.687Z,0
2023-04-01T02:09:14.344Z,0
2023-04-01T02:10:14.958Z,0
2023-04-01T02:11:15.556Z,0
2023-04-01T02:12:16.173Z,0
2023-04-01T02:13:17.651Z,0
2023-04-01T02:14:18.250Z,0
2023-04-01T02:15:19.693Z,0
2023-04-01T02:16:21.161Z,0
2023-04-01T02:17:21.767Z,0
2023-04-01T02:18:22.355Z,0
2023-04-01T02:19:23.865Z,0
2023-04-01T02:20:25.357Z,0
2023-04-01T02:21:25.946Z,0
2023-04-01T02:22:27.477Z,0
2023-04-01T02:23:28.944Z,0
2023-04-01T02:24:29.543Z,0
2023-04-01T02:25:30.193Z,0
2023-04-01T02:26:30.789Z,0
2023-04-01T02:27:32.185Z,0
2023-04-01T02:28:32.788Z,0
2023-04-01T02:29:34.235Z,0
2023-04-01T02:30:34.841Z,0
2023-04-01T02:31:35.548Z,0
2023-04-01T02:32:37.070Z,0
2023-04-01T02:33:37.679Z,0
2023-04-01T02:34:39.138Z,0
2023-04-01T02:35:40.623Z,0
2023-04-01T02:36:42.081Z,0
2023-04-01T02:37:43.534Z,0
2023-04-01T02:38:44.137Z,0
2023-04-01T02:39:44.746Z,0
2023-04-01T02:40:45.340Z,0
2023-04-01T02:41:46.790Z,0
2023-04-01T02:42:47.388Z,0
2023-04-01T02:43:47.975Z,0
2023-04-01T02:44:48.577Z,0
2023-04-01T02:45:49.331Z,0
2023-04-01T02:46:49.966Z,0
2023-04-01T02:47:51.485Z,0
2023-04-01T02:48:52.966Z,0
2023-04-01T02:49:54.363Z,0
2023-04-01T02:50:55.809Z,0
2023-04-01T02:51:57.304Z,0
2023-04-01T02:52:58.059Z,0
2023-04-01T02:53:59.510Z,0
2023-04-01T02:55:00.906Z,0
2023-04-01T02:56:02.377Z,0
2023-04-01T02:57:03.948Z,0
2023-04-01T02:58:05.371Z,0
2023-04-01T02:59:05.977Z,0
2023-04-01T03:00:07.439Z,0
2023-04-01T03:01:08.868Z,0
2023-04-01T03:02:10.309Z,0
2023-04-01T03:03:11.791Z,0
2023-04-01T03:04:13.311Z,0
2023-04-01T03:05:13.908Z,0
2023-04-01T03:06:15.359Z,0
2023-04-01T03:07:16.761Z,0
2023-04-01T03:08:17.369Z,0
2023-04-01T03:09:18.887Z,0
2023-04-01T03:10:19.556Z,0
2023-04-01T03:11:20.151Z,0
2023-04-01T03:12:21.564Z,0
2023-04-01T03:13:22.136Z,0
2023-04-01T03:14:22.740Z,0
2023-04-01T03:15:23.400Z,0
2023-04-01T03:16:24.833Z,0
2023-04-01T03:17:25.447Z,0
2023-04-01T03:18:26.945Z,0
2023-04-01T03:19:27.547Z,0
2023-04-01T03:20:28.152Z,0
2023-04-01T03:21:29.712Z,0
2023-04-01T03:22:31.214Z,0
2023-04-01T03:23:32.610Z,0
2023-04-01T03:24:33.206Z,0
2023-04-01T03:25:33.984Z,0
2023-04-01T03:26:35.568Z,0
2023-04-01T03:27:36.170Z,0
2023-04-01T03:28:36.863Z,0
2023-04-01T03:29:38.338Z,0
2023-04-01T03:30:39.028Z,0
2023-04-01T03:31:39.635Z,0
2023-04-01T03:32:41.220Z,0
2023-04-01T03:33:42.657Z,0
2023-04-01T03:34:43.251Z,0
2023-04-01T03:35:43.846Z,0
2023-04-01T03:36:45.455Z,0
2023-04-01T03:37:46.893Z,0
2023-04-01T03:38:47.523Z,0
2023-04-01T03:39:48.959Z,0
2023-04-01T03:40:50.367Z,0
2023-04-01T03:41:50.957Z,0
2023-04-01T03:42:52.410Z,0
2023-04-01T03:43:53.848Z,0
2023-04-01T03:44:55.255Z,0
2023-04-01T03:45:56.666Z,0
2023-04-01T03:46:57.320Z,0
2023-04-01T03:47:57.991Z,0
2023-04-01T03:48:59.393Z,0
2023-04-01T03:50:00.015Z,0
2023-04-01T03:51:00.605Z,0
2023-04-01T03:52:02.077Z,0
2023-04-01T03:53:03.481Z,0
2023-04-01T03:54:04.938Z,0
2023-04-01T03:55:05.650Z,0
2023-04-01T03:56:06.259Z,0
2023-04-01T03:57:06.891Z,0
2023-04-01T03:58:07.564Z,0
2023-04-01T03:59:09.014Z,0
2023-04-01T04:00:10.471Z,0
2023-04-01T04:01:11.925Z,0
2023-04-01T04:02:12.535Z,0
2023-04-01T04:03:14.001Z,0
2023-04-01T04:04:15.445Z,0
2023-04-01T04:05:16.137Z,0
2023-04-01T04:06:17.540Z,0
2023-04-01T04:07:18.989Z,0
2023-04-01T04:08:20.385Z,0
2023-04-01T04:09:20.982Z,0
2023-04-01T04:10:21.583Z,0
2023-04-01T04:11:22.193Z,0
2023-04-01T04:12:22.853Z,0
2023-04-01T04:13:24.263Z,0
2023-04-01T04:14:25.658Z,0
2023-04-01T04:15:27.052Z,0
2023-04-01T04:16:27.763Z,0
2023-04-01T04:17:29.281Z,0
2023-04-01T04:18:29.874Z,0
2023-04-01T04:19:30.462Z,0
2023-04-01T04:20:31.857Z,0
2023-04-01T04:21:33.316Z,0
2023-04-01T04:22:34.828Z,0
2023-04-01T04:23:35.434Z,0
2023-04-01T04:24:36.890Z,0
2023-04-01T04:25:38.289Z,0
2023-04-01T04:26:39.680Z,0
2023-04-01T04:27:40.276Z,0
2023-04-01T04:28:41.694Z,0
2023-04-01T04:29:42.340Z,0
2023-04-01T04:30:42.932Z,0
2023-04-01T04:31:43.563Z,0
2023-04-01T04:32:45.043Z,0
2023-04-01T04:33:45.693Z,0
2023-04-01T04:34:47.222Z,0
2023-04-01T04:35:48.637Z,0
2023-04-01T04:36:49.227Z,0
2023-04-01T04:37:49.826Z,0
2023-04-01T04:38:50.424Z,0
2023-04-01T04:39:51.821Z,0
2023-04-01T04:40:52.423Z,0
2023-04-01T04:41:53.869Z,0
2023-04-01T04:42:55.285Z,0
2023-04-01T04:43:55.944Z,0
2023-04-01T04:44:56.525Z,0
2023-04-01T04:45:57.128Z,0
2023-04-01T04:46:58.559Z,0
2023-04-01T04:47:59.329Z,0
2023-04-01T04:49:00.762Z,0
2023-04-01T04:50:02.143Z,0
2023-04-01T04:51:02.749Z,0
2023-04-01T04:52:04.194Z,0
2023-04-01T04:53:05.584Z,0
2023-04-01T04:54:06.994Z,0
2023-04-01T04:55:08.413Z,0
2023-04-01T04:56:09.008Z,0
2023-04-01T04:57:09.676Z,0
2023-04-01T04:58:10.269Z,0
2023-04-01T04:59:11.675Z,0
2023-04-01T05:00:13.071Z,0
2023-04-01T05:01:14.601Z,0
2023-04-01T05:02:15.303Z,0
2023-04-01T05:03:16.773Z,0
2023-04-01T05:04:18.212Z,0
2023-04-01T05:05:19.658Z,0
2023-04-01T05:06:22.954Z,0
2023-04-01T05:07:22.750Z,0
2023-04-01T05:08:24.145Z,0
2023-04-01T05:09:24.746Z,0
2023-04-01T05:10:25.345Z,0
2023-04-01T05:11:25.948Z,0
2023-04-01T05:12:26.540Z,0
2023-04-01T05:13:27.936Z,0
2023-04-01T05:14:28.547Z,0
2023-04-01T05:15:29.132Z,0
2023-04-01T05:16:29.761Z,0
2023-04-01T05:17:30.483Z,0
2023-04-01T05:18:31.944Z,0
2023-04-01T05:19:32.546Z,0
2023-04-01T05:20:33.141Z,0
2023-04-01T05:21:34.589Z,0
2023-04-01T05:22:35.193Z,0
2023-04-01T05:23:35.784Z,0
2023-04-01T05:24:37.239Z,0
2023-04-01T05:25:38.693Z,0
2023-04-01T05:26:40.144Z,0
2023-04-01T05:27:40.810Z,0
2023-04-01T05:28:41.436Z,0
2023-04-01T05:29:42.039Z,0
2023-04-01T05:30:42.716Z,0
2023-04-01T05:31:43.345Z,0
2023-04-01T05:32:44.876Z,0
2023-04-01T05:33:46.425Z,0
2023-04-01T05:34:47.815Z,0
2023-04-01T05:35:49.321Z,0
2023-04-01T05:36:50.774Z,0
2023-04-01T05:37:51.367Z,0
2023-04-01T05:38:51.966Z,0
2023-04-01T05:39:52.562Z,0
2023-04-01T05:40:54.007Z,0
2023-04-01T05:41:55.405Z,0
2023-04-01T05:42:56.854Z,0
2023-04-01T05:43:57.506Z,0
2023-04-01T05:44:58.902Z,0
2023-04-01T05:46:00.393Z,0
2023-04-01T05:47:01.800Z,0
2023-04-01T05:48:02.477Z,0
2023-04-01T05:49:03.938Z,0
2023-04-01T05:50:05.329Z,0
2023-04-01T05:51:06.798Z,0
2023-04-01T05:52:07.404Z,0
2023-04-01T05:53:08.003Z,0
2023-04-01T05:54:09.414Z,0
2023-04-01T05:55:10.797Z,0
2023-04-01T05:56:11.402Z,0
2023-04-01T05:57:12.018Z,0
2023-04-01T05:58:13.437Z,0
2023-04-01T05:59:14.043Z,0
2023-04-01T06:00:14.664Z,0
2023-04-01T06:01:16.436Z,0
2023-04-01T06:02:17.796Z,0
2023-04-01T06:03:18.512Z,0
2023-04-01T06:04:20.010Z,0
2023-04-01T06:05:21.425Z,0
2023-04-01T06:06:22.828Z,0
2023-04-01T06:07:24.230Z,0
2023-04-01T06:08:25.635Z,0
2023-04-01T06:09:27.035Z,0
2023-04-01T06:10:28.458Z,0
2023-04-01T06:11:29.050Z,0
2023-04-01T06:12:30.448Z,0
2023-04-01T06:13:31.903Z,0
2023-04-01T06:14:32.490Z,0
2023-04-01T06:15:33.349Z,0
2023-04-01T06:16:34.912Z,0
2023-04-01T06:17:36.480Z,0
2023-04-01T06:18:37.095Z,0
2023-04-01T06:19:37.694Z,0
2023-04-01T06:20:38.301Z,0
2023-04-01T06:21:39.692Z,0
2023-04-01T06:22:41.111Z,0
2023-04-01T06:23:42.522Z,0
2023-04-01T06:24:43.117Z,0
2023-04-01T06:25:43.718Z,0
2023-04-01T06:26:45.121Z,0
2023-04-01T06:27:46.521Z,0
2023-04-01T06:28:47.923Z,0
2023-04-01T06:29:48.619Z,0
2023-04-01T06:30:49.240Z,0
2023-04-01T06:31:49.868Z,0
2023-04-01T06:32:50.567Z,0
2023-04-01T06:33:52.058Z,0
2023-04-01T06:34:52.687Z,0
2023-04-01T06:35:54.231Z,0
2023-04-01T06:36:55.684Z,0
2023-04-01T06:37:56.256Z,0
2023-04-01T06:38:56.854Z,0
2023-04-01T06:39:58.258Z,0
2023-04-01T06:40:58.870Z,0
2023-04-01T06:42:00.411Z,0
2023-04-01T06:43:01.040Z,0
2023-04-01T06:44:02.434Z,0
2023-04-01T06:45:03.830Z,0
2023-04-01T06:46:05.342Z,0
2023-04-01T06:47:06.806Z,0
2023-04-01T06:48:08.292Z,0
2023-04-01T06:49:09.695Z,0
2023-04-01T06:50:11.094Z,0
2023-04-01T06:51:11.736Z,0
2023-04-01T06:52:13.137Z,0
2023-04-01T06:53:13.741Z,0
2023-04-01T06:54:15.197Z,0
2023-04-01T06:55:15.867Z,0
2023-04-01T06:56:17.302Z,0
2023-04-01T06:57:18.792Z,0
2023-04-01T06:58:19.406Z,0
2023-04-01T06:59:20.017Z,0
2023-04-01T07:00:20.620Z,0
2023-04-01T07:01:21.284Z,0
2023-04-01T07:02:22.740Z,0
2023-04-01T07:03:23.336Z,0
2023-04-01T07:04:23.965Z,0
2023-04-01T07:05:24.630Z,0
2023-04-01T07:06:25.215Z,0
2023-04-01T07:07:25.808Z,0
2023-04-01T07:08:26.417Z,0
2023-04-01T07:09:27.811Z,0
2023-04-01T07:10:29.258Z,0
2023-04-01T07:11:30.675Z,0
2023-04-01T07:12:31.329Z,0
2023-04-01T07:13:31.915Z,0
2023-04-01T07:14:33.383Z,0
2023-04-01T07:15:34.191Z,0
2023-04-01T07:16:35.007Z,0
2023-04-01T07:17:36.462Z,0
2023-04-01T07:18:38.138Z,0
2023-04-01T07:19:38.765Z,0
2023-04-01T07:20:40.170Z,0
2023-04-01T07:21:40.764Z,0
2023-04-01T07:22:41.423Z,0
2023-04-01T07:23:42.016Z,0
2023-04-01T07:24:42.636Z,0
2023-04-01T07:25:44.036Z,0
2023-04-01T07:26:45.655Z,0
2023-04-01T07:27:46.108Z,0
2023-04-01T07:28:47.671Z,0
2023-04-01T07:29:49.093Z,0
2023-04-01T07:30:50.517Z,0
2023-04-01T07:31:51.944Z,0
2023-04-01T07:32:52.592Z,0
2023-04-01T07:33:53.980Z,0
2023-04-01T07:34:55.390Z,0
2023-04-01T07:35:56.000Z,0
2023-04-01T07:36:57.419Z,0
2023-04-01T07:37:58.816Z,0
2023-04-01T07:38:59.465Z,0
2023-04-01T07:40:00.070Z,0
2023-04-01T07:41:01.518Z,0
2023-04-01T07:42:02.933Z,0
2023-04-01T07:43:04.362Z,0
2023-04-01T07:44:05.769Z,0
2023-04-01T07:45:06.371Z,0
2023-04-01T07:46:07.064Z,0
2023-04-01T07:47:07.748Z,0
2023-04-01T07:48:09.256Z,0
2023-04-01T07:49:10.656Z,0
2023-04-01T07:50:11.267Z,0
2023-04-01T07:51:12.779Z,0
2023-04-01T07:52:13.531Z,0
2023-04-01T07:53:14.125Z,0
2023-04-01T07:54:15.529Z,0
2023-04-01T07:55:16.201Z,0
2023-04-01T07:56:16.812Z,0
2023-04-01T07:57:17.502Z,0
2023-04-01T07:58:18.108Z,0
2023-04-01T07:59:19.553Z,0
2023-04-01T08:00:21.012Z,0
2023-04-01T08:01:22.462Z,0
2023-04-01T08:02:24.076Z,0
2023-04-01T08:03:25.702Z,0
2023-04-01T08:04:27.274Z,4
2023-04-01T08:05:27.905Z,4
2023-04-01T08:06:29.355Z,0
2023-04-01T08:07:30.757Z,0
2023-04-01T08:08:31.354Z,0
2023-04-01T08:09:31.949Z,0
2023-04-01T08:10:33.348Z,0
2023-04-01T08:11:33.950Z,0
2023-04-01T08:12:35.419Z,0
2023-04-01T08:13:36.067Z,0
2023-04-01T08:14:37.444Z,0
2023-04-01T08:15:38.047Z,0
2023-04-01T08:16:38.697Z,4
2023-04-01T08:17:40.163Z,4
2023-04-01T08:18:41.628Z,0
2023-04-01T08:19:42.233Z,4
2023-04-01T08:20:43.763Z,4
2023-04-01T08:21:44.360Z,4
2023-04-01T08:22:45.760Z,4
2023-04-01T08:23:46.369Z,4
2023-04-01T08:24:48.461Z,0
2023-04-01T08:25:49.228Z,0
2023-04-01T08:26:50.685Z,0
2023-04-01T08:27:52.074Z,0
2023-04-01T08:28:52.731Z,0
2023-04-01T08:29:53.399Z,4
2023-04-01T08:30:54.795Z,4
2023-04-01T08:31:56.364Z,4
2023-04-01T08:32:57.145Z,4
2023-04-01T08:33:57.783Z,0
2023-04-01T08:34:59.292Z,0
2023-04-01T08:35:59.923Z,0
2023-04-01T08:37:01.419Z,0
2023-04-01T08:38:02.823Z,0
2023-04-01T08:39:03.426Z,4
2023-04-01T08:40:04.867Z,4
2023-04-01T08:41:05.461Z,0
2023-04-01T08:42:06.063Z,0
2023-04-01T08:43:07.513Z,0
2023-04-01T08:44:08.175Z,4
2023-04-01T08:45:09.630Z,4
2023-04-01T08:46:11.079Z,4
2023-04-01T08:47:12.483Z,4
2023-04-01T08:48:13.158Z,4
2023-04-01T08:49:14.608Z,4
2023-04-01T08:50:15.259Z,4
2023-04-01T08:51:15.917Z,4
2023-04-01T08:52:16.497Z,0
2023-04-01T08:53:17.897Z,0
2023-04-01T08:54:18.498Z,0
2023-04-01T08:55:19.936Z,4
2023-04-01T08:57:36.817Z,4
2023-04-01T08:58:38.215Z,4
2023-04-01T08:59:38.868Z,4
2023-04-01T09:00:40.274Z,4
2023-04-01T09:01:40.875Z,4
2023-04-01T09:02:42.380Z,0
2023-04-01T09:03:43.052Z,4
2023-04-01T09:04:44.607Z,0
2023-04-01T09:05:46.007Z,4
2023-04-01T09:06:47.405Z,4
2023-04-01T09:07:47.997Z,4
2023-04-01T09:08:48.601Z,4
2023-04-01T09:09:50.005Z,4
2023-04-01T09:10:51.396Z,4
2023-04-01T09:11:53.078Z,4
2023-04-01T09:12:53.589Z,4
2023-04-01T09:13:54.191Z,4
2023-04-01T09:14:54.796Z,4
2023-04-01T09:15:55.438Z,4
2023-04-01T09:16:56.044Z,8
2023-04-01T09:17:56.675Z,8
2023-04-01T09:18:58.164Z,4
2023-04-01T09:19:58.748Z,4
2023-04-01T09:20:59.356Z,4
2023-04-01T09:21:59.956Z,4
2023-04-01T09:23:00.626Z,8
2023-04-01T09:24:02.093Z,4
2023-04-01T09:25:02.699Z,4
2023-04-01T09:26:03.287Z,4
2023-04-01T09:27:04.738Z,4
2023-04-01T09:28:05.331Z,8
2023-04-01T09:29:06.730Z,8
2023-04-01T09:30:08.173Z,4
2023-04-01T09:31:09.586Z,4
2023-04-01T09:32:10.189Z,4
2023-04-01T09:33:10.800Z,4
2023-04-01T09:34:11.393Z,4
2023-04-01T09:35:12.802Z,4
2023-04-01T09:36:13.512Z,4
2023-04-01T09:37:14.096Z,4
2023-04-01T09:38:14.702Z,4
2023-04-01T09:39:16.193Z,4
2023-04-01T09:40:16.792Z,4
2023-04-01T09:41:17.516Z,8
2023-04-01T09:42:18.112Z,4
2023-04-01T09:43:18.701Z,4
2023-04-01T09:44:19.305Z,4
2023-04-01T09:45:19.912Z,8
2023-04-01T09:46:20.626Z,4
2023-04-01T09:47:22.053Z,4
2023-04-01T09:48:22.699Z,8
2023-04-01T09:49:24.143Z,4
2023-04-01T09:50:24.740Z,4
2023-04-01T09:51:26.135Z,8
2023-04-01T09:52:27.590Z,4
2023-04-01T09:53:28.257Z,8
2023-04-01T09:54:29.658Z,8
2023-04-01T09:55:30.262Z,8
2023-04-01T09:56:33.045Z,8
2023-04-01T09:57:33.472Z,8
2023-04-01T09:58:34.198Z,8
2023-04-01T09:59:36.629Z,8
2023-04-01T10:00:37.225Z,8
2023-04-01T10:01:38.681Z,8
2023-04-01T10:02:40.194Z,8
2023-04-01T10:03:40.793Z,4
2023-04-01T10:04:42.245Z,8
2023-04-01T10:05:42.953Z,4
2023-04-01T10:06:44.377Z,4
2023-04-01T10:07:44.978Z,4
2023-04-01T10:08:46.448Z,4
2023-04-01T10:09:47.842Z,4
2023-04-01T10:10:48.492Z,4
2023-04-01T10:11:49.103Z,8
2023-04-01T10:12:50.507Z,8
2023-04-01T10:13:51.168Z,8
2023-04-01T10:14:51.819Z,8
2023-04-01T10:15:52.424Z,8
2023-04-01T10:16:54.291Z,8
2023-04-01T10:17:54.573Z,8
2023-04-01T10:18:55.985Z,4
2023-04-01T10:19:57.394Z,8
2023-04-01T10:20:58.011Z,4
2023-04-01T10:21:59.436Z,4
2023-04-01T10:23:00.113Z,4
2023-04-01T10:24:00.761Z,4
2023-04-01T10:25:01.936Z,8
2023-04-01T10:26:03.754Z,8
2023-04-01T10:27:05.228Z,4
2023-04-01T10:28:05.842Z,8
2023-04-01T10:29:06.432Z,4
2023-04-01T10:30:07.030Z,4
2023-04-01T10:31:07.695Z,8
2023-04-01T10:32:08.516Z,4
2023-04-01T10:33:09.968Z,4
2023-04-01T10:34:11.348Z,4
2023-04-01T10:35:12.017Z,4
2023-04-01T10:36:13.501Z,8
2023-04-01T10:37:14.972Z,4
2023-04-01T10:38:16.425Z,4
2023-04-01T10:39:17.841Z,4
2023-04-01T10:40:19.254Z,8
2023-04-01T10:41:19.879Z,8
2023-04-01T10:42:20.491Z,8
2023-04-01T10:43:21.065Z,8
2023-04-01T10:44:22.562Z,4
2023-04-01T10:45:23.158Z,4
2023-04-01T10:46:24.759Z,4
2023-04-01T10:47:25.408Z,4
2023-04-01T10:48:26.080Z,4
2023-04-01T10:49:26.690Z,8
2023-04-01T10:50:28.081Z,8
2023-04-01T10:51:29.488Z,8
2023-04-01T10:52:30.091Z,8
2023-04-01T10:53:31.494Z,8
2023-04-01T10:54:32.950Z,4
2023-04-01T10:55:34.607Z,8
2023-04-01T10:56:36.122Z,4
2023-04-01T10:57:36.781Z,8
2023-04-01T10:58:38.189Z,4
2023-04-01T10:59:38.805Z,8
2023-04-01T11:00:40.200Z,8
2023-04-01T11:01:41.776Z,4
2023-04-01T11:02:42.581Z,4
2023-04-01T11:03:44.092Z,4
2023-04-01T11:04:45.606Z,4
2023-04-01T11:05:47.044Z,8
2023-04-01T11:06:48.450Z,4
2023-04-01T11:07:59.353Z,8
2023-04-01T11:08:50.686Z,8
2023-04-01T11:09:52.132Z,8
2023-04-01T11:10:52.754Z,8
2023-04-01T11:11:54.154Z,8
2023-04-01T11:12:54.760Z,8
2023-04-01T11:13:56.146Z,8
2023-04-01T11:14:56.847Z,8
2023-04-01T11:15:58.347Z,8
2023-04-01T11:16:58.926Z,8
2023-04-01T11:18:00.431Z,12
2023-04-01T11:19:01.827Z,8
2023-04-01T11:20:03.286Z,8
2023-04-01T11:21:03.883Z,8
2023-04-01T11:22:05.281Z,8
2023-04-01T11:23:06.789Z,8
2023-04-01T11:24:08.244Z,8
2023-04-01T11:25:08.837Z,8
2023-04-01T11:26:10.287Z,8
2023-04-01T11:27:10.901Z,8
2023-04-01T11:28:11.514Z,8
2023-04-01T11:29:12.991Z,12
2023-04-01T11:30:14.439Z,8
2023-04-01T11:31:16.754Z,8
2023-04-01T11:32:18.137Z,8
2023-04-01T11:33:20.668Z,4
2023-04-01T11:34:20.364Z,8
2023-04-01T11:35:20.965Z,8
2023-04-01T11:36:22.503Z,8
2023-04-01T11:37:23.879Z,4
2023-04-01T11:38:25.281Z,8
2023-04-01T11:39:26.703Z,4
2023-04-01T11:40:28.091Z,4
2023-04-01T11:41:29.485Z,8
2023-04-01T11:42:30.086Z,8
2023-04-01T11:43:33.709Z,4
2023-04-01T11:44:33.135Z,8
2023-04-01T11:45:34.855Z,8
2023-04-01T11:46:36.556Z,12
2023-04-01T11:47:38.117Z,8
2023-04-01T11:48:39.513Z,8
2023-04-01T11:49:40.116Z,8
2023-04-01T11:50:41.520Z,8
2023-04-01T11:51:42.920Z,8
2023-04-01T11:52:43.516Z,12
2023-04-01T11:53:44.131Z,12
2023-04-01T11:54:45.536Z,12
2023-04-01T11:55:48.102Z,12
2023-04-01T11:56:48.607Z,12
2023-04-01T11:57:49.238Z,12
2023-04-01T11:58:50.642Z,12
2023-04-01T11:59:52.045Z,12
2023-04-01T12:00:53.454Z,16
2023-04-01T12:01:54.839Z,12
2023-04-01T12:02:56.311Z,12
2023-04-01T12:03:57.048Z,8
2023-04-01T12:04:58.025Z,8
2023-04-01T12:05:59.549Z,8
2023-04-01T12:07:01.067Z,8
2023-04-01T12:08:01.720Z,8
2023-04-01T12:09:03.116Z,8
2023-04-01T12:10:04.520Z,4
2023-04-01T12:11:05.973Z,8
2023-04-01T12:12:07.380Z,4
2023-04-01T12:13:08.763Z,8
2023-04-01T12:14:09.369Z,8
2023-04-01T12:15:09.980Z,8
2023-04-01T12:16:10.638Z,8
2023-04-01T12:17:11.270Z,4
2023-04-01T12:18:11.909Z,4
2023-04-01T12:19:13.360Z,8
2023-04-01T12:20:13.959Z,4
2023-04-01T12:21:15.361Z,4
2023-04-01T12:22:16.768Z,4
2023-04-01T12:23:17.426Z,8
2023-04-01T12:24:18.023Z,8
2023-04-01T12:25:18.629Z,8
2023-04-01T12:26:19.225Z,4
2023-04-01T12:27:19.893Z,8
2023-04-01T12:28:20.493Z,8
2023-04-01T12:29:22.017Z,4
2023-04-01T12:30:23.410Z,8
2023-04-01T12:31:24.966Z,4
2023-04-01T12:32:26.653Z,4
2023-04-01T12:33:28.089Z,4
2023-04-01T12:34:28.695Z,4
2023-04-01T12:35:29.323Z,8
2023-04-01T12:36:30.772Z,4
2023-04-01T12:37:31.357Z,4
2023-04-01T12:38:31.962Z,4
2023-04-01T12:39:33.410Z,4
2023-04-01T12:40:34.212Z,8
2023-04-01T12:41:35.846Z,4
2023-04-01T12:42:37.340Z,4
2023-04-01T12:43:38.000Z,4
2023-04-01T12:44:39.396Z,8
2023-04-01T12:45:40.834Z,8
2023-04-01T12:46:42.242Z,8
2023-04-01T12:47:42.914Z,4
2023-04-01T12:48:44.410Z,4
2023-04-01T12:49:45.005Z,4
2023-04-01T12:50:45.598Z,4
2023-04-01T12:51:46.991Z,8
2023-04-01T12:52:47.593Z,4
2023-04-01T12:53:49.045Z,8
2023-04-01T12:54:50.498Z,8
2023-04-01T12:55:51.167Z,8
2023-04-01T12:56:52.635Z,8
2023-04-01T12:57:54.016Z,8
2023-04-01T12:58:54.664Z,8
2023-04-01T12:59:56.062Z,4
2023-04-01T13:00:56.678Z,4
2023-04-01T13:01:58.061Z,8
2023-04-01T13:02:58.742Z,8
2023-04-01T13:04:00.247Z,4
2023-04-01T13:05:01.674Z,8
2023-04-01T13:06:02.287Z,8
2023-04-01T13:07:02.874Z,8
2023-04-01T13:08:04.262Z,4
2023-04-01T13:09:04.864Z,4
2023-04-01T13:10:06.257Z,8
2023-04-01T13:11:07.662Z,8
2023-04-01T13:12:09.057Z,4
2023-04-01T13:13:09.757Z,8
2023-04-01T13:14:15.989Z,4
2023-04-01T13:15:12.706Z,4
2023-04-01T13:16:13.328Z,4
2023-04-01T13:17:13.963Z,8
2023-04-01T13:18:14.624Z,4
2023-04-01T13:19:15.219Z,4
2023-04-01T13:20:15.820Z,8
2023-04-01T13:21:16.425Z,8
2023-04-01T13:22:17.868Z,8
2023-04-01T13:23:19.272Z,4
2023-04-01T13:24:20.715Z,8
2023-04-01T13:25:21.318Z,8
2023-04-01T13:26:21.960Z,8
2023-04-01T13:27:23.361Z,8
2023-04-01T13:28:24.814Z,8
2023-04-01T13:29:26.216Z,8
2023-04-01T13:30:26.820Z,4
2023-04-01T13:31:28.308Z,4
2023-04-01T13:32:40.862Z,4
2023-04-01T13:33:31.360Z,4
2023-04-01T13:34:32.011Z,8
2023-04-01T13:35:32.656Z,8
2023-04-01T13:36:34.070Z,8
2023-04-01T13:37:36.302Z,8
2023-04-01T13:38:37.867Z,8
2023-04-01T13:39:39.261Z,12
2023-04-01T13:40:46.825Z,12
2023-04-01T13:41:42.254Z,12
2023-04-01T13:42:43.616Z,12
2023-04-01T13:43:44.502Z,12
2023-04-01T13:44:45.154Z,12
2023-04-01T13:45:45.748Z,12
2023-04-01T13:46:46.388Z,12
2023-04-01T13:47:47.933Z,12
2023-04-01T13:48:49.354Z,12
2023-04-01T13:49:50.034Z,12
2023-04-01T13:50:51.442Z,12
2023-04-01T13:51:52.841Z,12
2023-04-01T13:52:54.306Z,8
2023-04-01T13:53:55.739Z,8
2023-04-01T13:54:58.497Z,8
2023-04-01T13:55:58.775Z,8
2023-04-01T13:56:59.450Z,8
2023-04-01T13:58:00.862Z,4
2023-04-01T13:59:02.373Z,8
2023-04-01T14:00:02.979Z,8
2023-04-01T14:01:04.456Z,8
2023-04-01T14:02:05.036Z,8
2023-04-01T14:03:06.567Z,4
2023-04-01T14:04:08.176Z,8
2023-04-01T14:05:08.805Z,4
2023-04-01T14:06:09.408Z,4
2023-04-01T14:07:10.015Z,4
2023-04-01T14:08:11.474Z,4
2023-04-01T14:09:12.053Z,4
2023-04-01T14:10:12.654Z,4
2023-04-01T14:11:14.108Z,4
2023-04-01T14:12:15.550Z,4
2023-04-01T14:13:16.156Z,8
2023-04-01T14:14:16.749Z,4
2023-04-01T14:15:17.352Z,8
2023-04-01T14:16:18.039Z,8
2023-04-01T14:17:18.670Z,8
2023-04-01T14:18:19.336Z,8
2023-04-01T14:19:19.933Z,8
2023-04-01T14:20:20.542Z,8
2023-04-01T14:21:21.138Z,8
2023-04-01T14:22:21.740Z,12
2023-04-01T14:23:22.333Z,8
2023-04-01T14:24:22.929Z,12
2023-04-01T14:25:23.557Z,12
2023-04-01T14:26:24.202Z,12
2023-04-01T14:27:24.797Z,12
2023-04-01T14:28:25.402Z,12
2023-04-01T14:29:26.078Z,12
2023-04-01T14:30:27.532Z,12
2023-04-01T14:31:29.024Z,12
2023-04-01T14:32:29.636Z,12
2023-04-01T14:33:31.070Z,8
2023-04-01T14:34:32.466Z,12
2023-04-01T14:35:34.044Z,12
2023-04-01T14:36:34.761Z,12
2023-04-01T14:37:35.354Z,12
2023-04-01T14:38:35.965Z,8
2023-04-01T14:39:36.556Z,12
2023-04-01T14:40:37.954Z,12
2023-04-01T14:41:39.420Z,12
2023-04-01T14:42:40.835Z,16
2023-04-01T14:43:42.224Z,16
2023-04-01T14:44:43.698Z,20
2023-04-01T14:45:44.326Z,24
2023-04-01T14:46:45.788Z,20
2023-04-01T14:47:47.235Z,20
2023-04-01T14:48:47.902Z,20
2023-04-01T14:49:49.309Z,20
2023-04-01T14:50:50.766Z,20
2023-04-01T14:51:51.378Z,20
2023-04-01T14:52:51.969Z,24
2023-04-01T14:53:52.672Z,24
2023-04-01T14:54:54.056Z,32
2023-04-01T14:55:54.669Z,36
2023-04-01T14:56:56.198Z,36
2023-04-01T14:57:57.620Z,44
2023-04-01T14:58:59.070Z,40
2023-04-01T14:59:59.642Z,52
2023-04-01T15:01:01.180Z,36
2023-04-01T15:02:02.566Z,36